Kuujjuaq Airport, Quebec

Past 24 Hour Conditions

Date / Time
(EST)
Conditions Temp
(°C)
Humidity
(%)
Dew Point
(°C)
Wind
(km/h)
Pressure
(kPa)
Vis
(km)
Wind Chill
26 November 2014
3:00 Partly Cloudy -16   81 -18 SW 8 100.8 24 -21
2:00 Partly Cloudy -15 80 -17 NW 16 100.7 24 -23
1:00 Partly Cloudy -13 79 -16 NW 19 gust 29 100.5 24 -22
00:00 Cloudy -12 75 -15 NW 19 gust 29 100.4 24 -20
25 November 2014
23:00 Light Snow -11 74 -14 NW 16 100.3 19 -18
22:00 Light Snow -10 75 -13 NNW 18 100.2 24 -17
21:00 Light Snow -10 77 -13 NW 25 gust 34 100.1 19 -18
20:00 Light Snow -10 81 -13 NW 21 100.1 19 -18
19:00 Light Snow -9 80 -12 NW 26 gust 39 100.0 16 -17
18:00 Light Snow -8 75 -12 NNW 27 gust 40 99.9 24 -16
17:00 Light Snow -8 78 -11 NNW 32 gust 44 99.8 24 -17
16:00 Light Snow -7 77 -11 NNW 33 gust 46 99.7 24 -16
15:00 Light Snow -7 84 -9 N 39 gust 53 99.5 19 -17
14:00 Light Snow -6 85 -8 N 33 gust 49 99.4 2 -14
13:00 Light Snow -5   87 -6 N 27 gust 40 99.1 2 -12
12:00 Light Snow -5   86 -7 NNE 21 gust 36 99.0 2 -11
11:00 Light Snow -5   87 -7 NNE 20 gust 32 98.9 2 -12
10:00 Light Snow -6 87 -7 NNE 22 98.9 2 -13
9:00 Light Snow -6 89 -8 NNE 23 98.9 2 -13
8:00 Light Snow -7 87 -8 NNE 23 98.9 3 -14
7:00 Light Snow -7 87 -9 NNE 21 gust 36 98.9 3 -14
6:00 Light Snow -7 85 -10 NE 27 98.9 4 -16
5:00 Light Snow -8 83 -10 NE 22 gust 38 99.0 4 -15
4:00 Light Snow -8 80 -11 NE 25 gust 35 99.1 4 -16
3:00 Light Snow -8 75 -12 NE 24 gust 37 99.1 13 -16
N/A Not available
↑ Highest temperature
↓ Lowest temperature
* Value not significant.

If you require additional historical weather information, please visit Climate Data Online.

Date modified: